OPA Logo
 
ASOS:
At:2020.10.10 2015 UTC
Wind:320° @ 10-16 KT
Viz: 3 mile(s)
Sky: mostly cloudy
Temp: light rain
DewP: 48 F (9 C)
RH: 44 F (7 C)
Baro: 44 F (7 C)
ob: KBDN 102015Z AUTO 32010G16KT 3SM -RA FEW017 SCT022 BKN031 09/07 A2983 RMK AO2

ASOS: KRDM
At:2020.10.10 1956 UTC
Wind:310° @ 17-29 KT
Viz: 8 mile(s)
Sky: overcast
Temp: light rain
DewP: 0.04 inches
RH: 53.1 F (11.7 C)
Baro: 53.1 F (11.7 C)
ob: KRDM 101956Z 31017G29KT 8SM -RA FEW030 BKN041 OVC055 12/07 A2979 RMK AO2 PK WND 30029/1949 WSHFT 1937 RAB14 SLP076 P0004 T01170067
Apache-SSL Logo

Valid HTML 4.01!

Rent Increase 2020 Documents

Our Cause

"The City of Bend has failed to meet the regulatory requirements of FAA Airport Compliance Manual - Order 5190.6B Chapter 18 "Airport Rates and Charges", and City of Bend Code 12.15.005 Resolution, "The fee shall not exceed the average cost of providing service"; when it established new airport rents and fees scheduled to start 8/1/2020. Therefore the new rates and fees are invalid and are hereby formally contested in accordance with FAA Airport Compliance Manual - Order 5190.6B Chapter 18.6 Local Negotiation and Resolution."

Specialized Aero Works Open House, 2 October 2020

Presentation Slide Deck

Remarks and Questions Form

September 8 Meeting

Organizing Meeting

August 3 Meeting

6:30 pm August 3, Meeting Agenda

6:30 pm August 3, Meeting Notice

The Bulletin

August 2: Bend Airport tenants frustrated after city's rent increase "City says rent hike is justified, need for airport to be self-sustaining"

9 March 2017: City sued for $15.3M by Bend airport tenants

AOPA news

July 22: PILOTS FIGHT FEE INCREASES AT BEND, OREGON, AIRPORT

KTVZ news

July 23: Bend airport businesses object to rent hike

Bend City Council

July 23: City Council video (Slow link). Public Comments start at 40:30.

June 17: The fee resolution railing the rates: Bud-E-Full Fees Resolution 2020-06-17.

At the top: " Bend Code section 12.15.005 states that the City Council may, by resolution, establish and amend fees or service charges (collectively “fees”) for any and all services provided by the City. The fee shall not exceed the average cost of providing the service."

The dirty deed in Section 6.4 on page 21.

2 April 2020: 2020 Rent Appraisal

June 2017: City council resolution from June 2017 on the lawsuit.

6 March 2015: 2015 Rent Appraisal

FAA

FAA Airport Compliance Manual Order 5190.6B Chapter 18 "Airport Rates and Charges"

Comparable Rents

BDN_comparables.xlsx

Bend Airport Master Plan

Bend Aiport Master Plan

Tenant Fees Discussions

Tenant_Fees_Discussion_20Jul20_With_Comments.pdf

Renter's Contacts

contact.xlsx


Web page by: gem@rellim.com